Time;durP1;ratioP1;P1;durP2;ratioP2;P2;SDS_P1;SDS_P2;PMS_P1;PMS_P2;Temp;Humidity;BMP_temperature;BMP_pressure;BME280_temperature;BME280_humidity;BME280_pressure;Samples;Min_cycle;Max_cycle;Signal;HPM_P1;HPM_P2
2022/06/22 00:01:04;;;;;;;1.40;0.63;;;26.50;42.40;;;;;;4954710;28;20031;-49
2022/06/22 00:03:31;;;;;;;2.55;0.70;;;26.40;42.50;;;;;;4952219;28;20034;-49
2022/06/22 00:05:57;;;;;;;1.30;0.60;;;26.50;42.50;;;;;;4953695;28;20026;-50
2022/06/22 00:08:29;;;;;;;1.83;1.00;;;26.50;42.50;;;;;;4954243;28;20051;-50
2022/06/22 00:11:10;;;;;;;1.02;0.60;;;26.50;42.60;;;;;;4954271;28;20027;-50
2022/06/22 00:13:36;;;;;;;1.25;0.65;;;26.40;42.60;;;;;;4954121;28;20608;-50
2022/06/22 00:16:05;;;;;;;1.42;0.68;;;26.40;42.60;;;;;;4954278;28;20077;-50
2022/06/22 00:18:41;;;;;;;1.63;0.82;;;26.40;42.60;;;;;;4954104;28;20090;-50
2022/06/22 00:21:18;;;;;;;2.03;0.77;;;26.40;42.60;;;;;;4955243;28;20093;-50
2022/06/22 00:23:47;;;;;;;1.63;0.90;;;26.50;42.70;;;;;;4953959;28;20026;-49
2022/06/22 00:26:17;;;;;;;1.55;0.70;;;26.40;42.70;;;;;;4955194;28;20023;-50
2022/06/22 00:29:09;;;;;;;1.80;0.75;;;26.40;42.70;;;;;;4954296;28;20066;-49
2022/06/22 00:31:38;;;;;;;2.25;0.95;;;26.40;42.60;;;;;;4953568;28;20958;-49
2022/06/22 00:34:10;;;;;;;2.25;1.00;;;26.50;42.70;;;;;;4952766;28;20441;-50
2022/06/22 00:36:44;;;;;;;1.90;1.03;;;26.50;42.70;;;;;;4953685;28;20023;-50
2022/06/22 00:39:12;;;;;;;1.58;0.73;;;26.50;42.70;;;;;;4953045;28;20038;-50
2022/06/22 00:41:38;;;;;;;1.80;0.80;;;26.40;42.60;;;;;;4955747;28;20045;-49
2022/06/22 00:44:10;;;;;;;2.17;0.90;;;26.50;42.60;;;;;;4958682;28;20483;-50
2022/06/22 00:46:43;;;;;;;1.75;0.88;;;26.40;42.50;;;;;;4957291;28;20090;-50
2022/06/22 00:49:13;;;;;;;;;;;26.50;42.50;;;;;;4959559;28;20042;-49
2022/06/22 00:51:40;;;;;;;2.38;0.73;;;26.50;42.40;;;;;;4957472;28;19911;-50
2022/06/22 00:54:15;;;;;;;2.00;0.80;;;26.40;42.40;;;;;;4955010;28;20365;-49
2022/06/22 00:56:41;;;;;;;1.38;0.80;;;26.40;42.40;;;;;;4957254;28;20035;-50
2022/06/22 00:59:29;;;;;;;1.00;0.60;;;26.40;42.40;;;;;;4957260;28;20400;-50
2022/06/22 01:02:14;;;;;;;1.02;0.60;;;26.40;42.50;;;;;;4956603;28;20066;-50
2022/06/22 01:04:55;;;;;;;1.60;0.60;;;26.40;42.40;;;;;;4957777;28;20188;-49
2022/06/22 01:07:49;;;;;;;1.55;0.80;;;26.40;42.50;;;;;;4957457;28;20046;-49
2022/06/22 01:10:36;;;;;;;2.70;1.10;;;26.50;42.50;;;;;;4953825;28;20069;-49
2022/06/22 01:13:25;;;;;;;1.40;0.70;;;26.40;42.50;;;;;;4957187;28;20054;-49
2022/06/22 01:16:27;;;;;;;1.45;0.60;;;26.40;42.60;;;;;;4956907;28;20042;-49
2022/06/22 01:19:27;;;;;;;2.08;0.80;;;26.40;42.50;;;;;;4952136;28;20053;-50
2022/06/22 01:22:07;;;;;;;1.67;0.63;;;26.40;42.60;;;;;;4950365;28;20054;-49
2022/06/22 01:24:44;;;;;;;1.70;0.65;;;26.40;42.60;;;;;;4955528;28;20031;-50
2022/06/22 01:27:35;;;;;;;1.85;0.70;;;26.40;42.60;;;;;;4956090;28;20035;-50
2022/06/22 01:30:16;;;;;;;1.08;0.63;;;26.40;42.60;;;;;;4956645;28;20805;-50
2022/06/22 01:32:43;;;;;;;1.50;0.70;;;26.40;42.50;;;;;;4956836;28;20600;-49
2022/06/22 01:35:20;;;;;;;1.92;0.73;;;26.40;42.50;;;;;;4956386;28;20649;-50
2022/06/22 01:37:46;;;;;;;1.23;0.70;;;26.40;42.50;;;;;;4955586;28;20023;-50
2022/06/22 01:40:14;;;;;;;1.92;0.70;;;26.40;42.40;;;;;;4956694;28;20038;-50
2022/06/22 01:42:52;;;;;;;1.77;0.70;;;26.40;42.40;;;;;;4956141;28;20168;-50
2022/06/22 01:45:23;;;;;;;2.42;0.60;;;26.40;42.40;;;;;;4955332;28;20022;-49
2022/06/22 01:47:51;;;;;;;1.60;0.80;;;26.40;42.50;;;;;;4956149;28;20027;-49
2022/06/22 01:50:40;;;;;;;1.23;0.70;;;26.40;42.50;;;;;;4954042;28;20631;-49
2022/06/22 01:53:19;;;;;;;1.10;0.50;;;26.40;42.50;;;;;;4955259;28;20671;-49
2022/06/22 01:55:57;;;;;;;1.13;0.68;;;26.40;42.50;;;;;;4956356;28;20035;-49
2022/06/22 01:58:31;;;;;;;1.92;0.80;;;26.40;42.60;;;;;;4956359;28;20054;-50
2022/06/22 02:01:26;;;;;;;1.33;0.68;;;26.40;42.60;;;;;;4956480;28;20415;-49
2022/06/22 02:04:25;;;;;;;1.52;0.70;;;26.40;42.60;;;;;;4937245;28;20074;-50
2022/06/22 02:10:30;;;;;;;1.10;0.57;;;26.40;42.60;;;;;;4955884;28;20029;-49
2022/06/22 02:13:23;;;;;;;1.77;0.70;;;26.40;42.60;;;;;;4954164;28;20058;-49
2022/06/22 02:16:09;;;;;;;2.08;0.60;;;26.40;42.60;;;;;;4954770;28;20667;-50
2022/06/22 02:19:10;;;;;;;1.77;0.80;;;26.40;42.60;;;;;;4956111;28;20599;-50
2022/06/22 02:21:50;;;;;;;1.50;0.70;;;26.40;42.60;;;;;;4951546;28;20023;-50
2022/06/22 02:24:44;;;;;;;2.15;0.70;;;26.40;42.50;;;;;;4957683;28;20046;-48
2022/06/22 02:27:17;;;;;;;1.10;0.52;;;26.40;42.50;;;;;;4953246;28;20028;-50
2022/06/22 02:29:56;;;;;;;0.50;0.38;;;26.40;42.50;;;;;;4952330;28;20031;-49
2022/06/22 02:32:42;;;;;;;1.60;0.80;;;26.40;42.50;;;;;;4952945;28;20027;-50
2022/06/22 02:35:10;;;;;;;1.33;0.63;;;26.40;42.50;;;;;;4954819;28;20023;-49
2022/06/22 02:37:47;;;;;;;1.27;0.60;;;26.40;42.50;;;;;;4955313;28;20031;-49
2022/06/22 02:40:19;;;;;;;1.45;0.68;;;26.40;42.50;;;;;;4954455;28;20031;-49
2022/06/22 02:45:30;;;;;;;1.65;0.60;;;26.40;42.50;;;;;;4955124;28;20035;-50
2022/06/22 02:48:22;;;;;;;1.67;0.65;;;26.40;42.50;;;;;;4956194;28;20030;-50
2022/06/22 02:51:13;;;;;;;1.70;0.75;;;26.40;42.50;;;;;;4954900;28;20023;-49
2022/06/22 02:53:41;;;;;;;0.68;0.40;;;26.40;42.50;;;;;;4955114;28;20023;-50
2022/06/22 02:56:20;;;;;;;1.40;0.68;;;26.40;42.50;;;;;;4955094;28;20539;-49
2022/06/22 02:58:45;;;;;;;1.35;0.60;;;26.40;42.50;;;;;;4955275;28;20391;-49
2022/06/22 03:01:20;;;;;;;0.80;0.50;;;26.40;42.50;;;;;;4955658;28;20038;-50
2022/06/22 03:03:54;;;;;;;0.90;0.50;;;26.40;42.60;;;;;;4955208;28;20031;-49
2022/06/22 03:06:24;;;;;;;1.05;0.65;;;26.40;42.60;;;;;;4955635;28;20027;-50
2022/06/22 03:08:51;;;;;;;1.00;0.65;;;26.40;42.50;;;;;;4955519;28;20038;-49
2022/06/22 03:11:18;;;;;;;1.25;0.70;;;26.40;42.40;;;;;;4955119;28;20109;-49
2022/06/22 03:13:49;;;;;;;1.30;0.70;;;26.40;42.40;;;;;;4955348;28;20508;-49
2022/06/22 03:16:27;;;;;;;1.08;0.52;;;26.40;42.40;;;;;;4955111;28;20568;-50
2022/06/22 03:18:56;;;;;;;1.65;0.60;;;26.40;42.40;;;;;;4954703;28;20475;-50
2022/06/22 03:21:22;;;;;;;1.40;0.55;;;26.40;42.40;;;;;;4954926;28;20062;-50
2022/06/22 03:24:13;;;;;;;1.40;0.70;;;26.40;42.40;;;;;;4954889;28;20027;-48
2022/06/22 03:26:44;;;;;;;1.05;0.65;;;26.40;42.40;;;;;;4954669;28;20088;-50
2022/06/22 03:29:31;;;;;;;1.00;0.60;;;26.40;42.30;;;;;;4952756;28;20039;-49
2022/06/22 03:32:18;;;;;;;1.67;0.77;;;26.40;42.40;;;;;;4954399;28;20055;-49
2022/06/22 03:34:54;;;;;;;1.60;0.60;;;26.40;42.40;;;;;;4953145;28;20019;-50
2022/06/22 03:37:28;;;;;;;1.77;0.70;;;26.30;42.40;;;;;;4954346;28;20077;-49
2022/06/22 03:40:00;;;;;;;1.48;0.70;;;26.30;42.40;;;;;;4952918;28;20023;-50
2022/06/22 03:42:35;;;;;;;1.08;0.60;;;26.30;42.40;;;;;;4952341;28;20023;-49
2022/06/22 03:45:10;;;;;;;1.83;0.68;;;26.30;42.40;;;;;;4952836;28;20059;-50
2022/06/22 03:48:04;;;;;;;1.13;0.52;;;26.30;42.40;;;;;;4952961;28;20410;-50
2022/06/22 03:50:45;;;;;;;0.88;0.50;;;26.30;42.50;;;;;;4954533;28;20031;-49
2022/06/22 03:53:18;;;;;;;1.63;0.73;;;26.30;42.50;;;;;;4954483;28;20094;-50
2022/06/22 03:55:50;;;;;;;0.70;0.45;;;26.30;42.50;;;;;;4954101;28;20030;-49
2022/06/22 03:58:16;;;;;;;0.60;0.40;;;26.30;42.50;;;;;;4954394;28;20034;-49
2022/06/22 04:00:44;;;;;;;1.67;0.60;;;26.30;42.50;;;;;;4954727;28;20058;-49
2022/06/22 04:03:13;;;;;;;1.27;0.60;;;26.30;42.50;;;;;;4953585;28;20098;-50
2022/06/22 04:05:45;;;;;;;1.50;0.70;;;26.30;42.40;;;;;;4951908;28;20487;-50
2022/06/22 04:08:37;;;;;;;0.93;0.55;;;26.30;42.40;;;;;;4954356;28;20529;-50
2022/06/22 04:11:08;;;;;;;0.77;0.50;;;26.30;42.40;;;;;;4952712;28;20045;-50
2022/06/22 04:13:35;;;;;;;1.63;0.60;;;26.30;42.30;;;;;;4952608;28;20026;-50
2022/06/22 04:16:26;;;;;;;1.05;0.57;;;26.40;42.50;;;;;;4956101;28;20689;-49
2022/06/22 04:18:57;;;;;;;1.75;0.70;;;26.30;42.40;;;;;;4957902;28;20458;-50
2022/06/22 04:21:38;;;;;;;1.52;0.60;;;26.30;42.40;;;;;;4958438;28;20039;-50
2022/06/22 04:24:15;;;;;;;1.08;0.50;;;26.40;42.40;;;;;;4957733;28;20027;-50
2022/06/22 04:27:25;;;;;;;1.48;0.70;;;26.30;42.50;;;;;;4958059;28;20110;-50
2022/06/22 04:30:03;;;;;;;1.40;0.60;;;26.30;42.50;;;;;;4917568;29;20578;-50
2022/06/22 04:32:44;;;;;;;1.00;0.50;;;26.30;42.50;;;;;;4934360;29;20047;-50
2022/06/22 04:35:27;;;;;;;1.33;0.60;;;26.30;42.50;;;;;;4949666;28;20117;-49
2022/06/22 04:38:26;;;;;;;1.65;0.50;;;26.30;42.50;;;;;;4957782;28;20043;-49
2022/06/22 04:41:13;;;;;;;1.70;0.70;;;26.40;42.50;;;;;;4956188;28;20066;-50
2022/06/22 04:43:39;;;;;;;1.30;0.73;;;26.30;42.60;;;;;;4956743;28;20019;-49
2022/06/22 04:46:08;;;;;;;1.17;0.60;;;26.30;42.60;;;;;;4957539;28;20039;-49
2022/06/22 04:48:41;;;;;;;1.60;0.60;;;26.30;42.60;;;;;;4957822;28;20118;-49
2022/06/22 04:51:16;;;;;;;1.10;0.60;;;26.30;42.50;;;;;;4956738;28;20546;-50
2022/06/22 04:53:55;;;;;;;1.38;0.52;;;26.30;42.60;;;;;;4957221;28;20110;-49
2022/06/22 04:56:30;;;;;;;1.10;0.57;;;26.30;42.50;;;;;;4956464;28;20114;-50
2022/06/22 04:58:58;;;;;;;1.35;0.70;;;26.30;42.50;;;;;;4956588;28;20510;-50
2022/06/22 05:01:28;;;;;;;1.55;0.90;;;26.30;42.60;;;;;;4956664;28;20085;-49
2022/06/22 05:03:58;;;;;;;2.17;0.73;;;26.30;42.50;;;;;;4954905;28;20376;-49
2022/06/22 05:06:41;;;;;;;1.08;0.60;;;26.40;42.50;;;;;;4955222;28;20035;-49
2022/06/22 05:09:16;;;;;;;2.13;0.70;;;26.30;42.50;;;;;;4956346;28;20058;-49
2022/06/22 05:11:46;;;;;;;1.63;0.90;;;26.30;42.60;;;;;;4955902;28;20103;-50
2022/06/22 05:14:20;;;;;;;2.20;0.88;;;26.30;42.80;;;;;;4955580;28;20038;-50
2022/06/22 05:17:00;;;;;;;1.92;0.77;;;26.30;43.10;;;;;;4953584;28;20028;-49
2022/06/22 05:19:44;;;;;;;1.75;0.80;;;26.30;43.20;;;;;;4953258;28;20597;-49
2022/06/22 05:22:12;;;;;;;1.58;0.80;;;26.30;43.50;;;;;;4955126;28;20734;-49
2022/06/22 05:24:43;;;;;;;2.55;0.90;;;26.30;43.50;;;;;;4954380;28;20039;-49
2022/06/22 05:27:13;;;;;;;2.40;0.80;;;26.40;43.40;;;;;;4955043;28;20030;-49
2022/06/22 05:29:44;;;;;;;2.25;0.93;;;26.30;43.30;;;;;;4948189;28;20031;-50
2022/06/22 05:32:17;;;;;;;2.38;1.00;;;26.30;43.00;;;;;;4953125;28;20608;-50
2022/06/22 05:34:46;;;;;;;1.73;0.82;;;26.30;43.00;;;;;;4944748;28;20677;-50
2022/06/22 05:37:18;;;;;;;2.60;1.20;;;26.40;42.90;;;;;;4949915;28;20066;-49
2022/06/22 05:39:44;;;;;;;2.40;1.05;;;26.30;42.90;;;;;;4955384;28;20033;-49
2022/06/22 05:42:12;;;;;;;1.73;0.93;;;26.30;42.80;;;;;;4955548;28;20027;-49
2022/06/22 05:44:38;;;;;;;3.22;1.45;;;26.30;43.20;;;;;;4955519;28;20037;-50
2022/06/22 05:47:05;;;;;;;3.13;1.00;;;26.30;43.20;;;;;;4955699;28;20031;-49
2022/06/22 05:49:54;;;;;;;2.35;0.90;;;26.30;43.50;;;;;;4955041;28;20034;-48
2022/06/22 05:52:44;;;;;;;2.40;1.08;;;26.30;43.50;;;;;;4956116;28;20105;-49
2022/06/22 05:55:22;;;;;;;2.33;0.80;;;26.30;43.40;;;;;;4955637;28;20043;-50
2022/06/22 05:58:06;;;;;;;2.38;1.02;;;26.30;43.20;;;;;;4954388;28;20056;-50
2022/06/22 06:00:39;;;;;;;2.50;0.90;;;26.30;43.30;;;;;;4955685;28;20039;-50
2022/06/22 06:03:31;;;;;;;1.83;0.85;;;26.30;43.30;;;;;;4955111;28;20031;-50
2022/06/22 06:06:04;;;;;;;1.83;0.90;;;26.30;43.40;;;;;;4953741;28;20548;-49
2022/06/22 06:08:44;;;;;;;1.92;0.95;;;26.30;43.40;;;;;;4954494;28;20085;-49
2022/06/22 06:11:16;;;;;;;3.65;1.10;;;26.20;43.50;;;;;;4942445;28;20019;-49
2022/06/22 06:13:58;;;;;;;2.70;1.20;;;26.20;43.90;;;;;;4954962;28;20454;-47
2022/06/22 06:16:27;;;;;;;3.23;0.90;;;26.20;44.10;;;;;;4953110;28;20031;-47
2022/06/22 06:19:01;;;;;;;2.28;1.20;;;26.20;44.10;;;;;;4955609;28;20106;-48
2022/06/22 06:21:36;;;;;;;3.63;1.30;;;26.20;44.20;;;;;;4955554;28;20046;-48
2022/06/22 06:24:20;;;;;;;2.53;1.30;;;26.20;43.90;;;;;;4954838;28;20027;-49
2022/06/22 06:30:00;;;;;;;2.05;0.82;;;26.20;43.80;;;;;;4955123;28;20107;-48
2022/06/22 06:32:47;;;;;;;1.63;0.80;;;26.20;43.90;;;;;;4953952;28;20106;-46
2022/06/22 06:35:21;;;;;;;4.15;0.95;;;26.20;43.90;;;;;;4955951;28;20030;-48
2022/06/22 06:37:57;;;;;;;1.83;0.82;;;26.20;43.90;;;;;;4953292;28;20054;-49
2022/06/22 06:40:41;;;;;;;3.60;1.00;;;26.20;43.80;;;;;;4954810;28;20027;-49
2022/06/22 06:43:36;;;;;;;2.50;1.08;;;26.20;43.70;;;;;;4954072;28;20036;-49
2022/06/22 06:46:23;;;;;;;1.95;0.85;;;26.20;43.90;;;;;;4953656;28;20028;-48
2022/06/22 06:49:09;;;;;;;3.72;1.15;;;26.20;43.90;;;;;;4954751;28;20039;-48
2022/06/22 06:51:39;;;;;;;1.60;0.70;;;26.20;43.90;;;;;;4946412;28;20040;-49
2022/06/22 06:54:19;;;;;;;2.55;1.05;;;26.20;43.90;;;;;;4952292;28;20026;-49
2022/06/22 06:56:56;;;;;;;2.42;1.00;;;26.20;43.90;;;;;;4955045;28;20021;-48
2022/06/22 06:59:26;;;;;;;2.30;1.08;;;26.20;43.90;;;;;;4953808;28;20173;-49
2022/06/22 07:01:52;;;;;;;2.53;0.98;;;26.20;43.90;;;;;;4953330;28;20027;-49
2022/06/22 07:04:32;;;;;;;2.38;0.95;;;26.20;43.90;;;;;;4953232;28;20046;-49
2022/06/22 07:07:07;;;;;;;2.08;0.93;;;26.20;43.90;;;;;;4954014;28;20031;-48
2022/06/22 07:09:37;;;;;;;2.70;1.00;;;26.20;43.90;;;;;;4950758;28;20031;-49
2022/06/22 07:12:44;;;;;;;2.08;1.00;;;26.20;43.90;;;;;;4953395;28;20102;-48
2022/06/22 07:15:18;;;;;;;1.70;0.80;;;26.20;43.90;;;;;;4932065;29;20032;-48
2022/06/22 07:17:47;;;;;;;2.40;1.05;;;26.20;44.70;;;;;;4933145;29;20036;-49
2022/06/22 07:20:23;;;;;;;1.95;0.90;;;26.20;43.90;;;;;;4941573;28;20051;-48
2022/06/22 07:22:51;;;;;;;2.75;0.98;;;26.20;43.90;;;;;;4953822;28;20042;-48
2022/06/22 07:25:39;;;;;;;2.47;1.08;;;26.20;43.90;;;;;;4952266;28;20022;-48
2022/06/22 07:28:15;;;;;;;2.53;1.20;;;26.20;43.90;;;;;;4954237;28;20033;-48
2022/06/22 07:31:09;;;;;;;2.33;1.02;;;26.20;43.80;;;;;;4952920;28;20015;-48
2022/06/22 07:33:41;;;;;;;2.17;1.05;;;26.10;43.90;;;;;;4952045;28;20497;-48
2022/06/22 07:36:16;;;;;;;2.40;1.08;;;26.20;43.90;;;;;;4948621;28;20109;-48
2022/06/22 07:38:44;;;;;;;2.08;1.02;;;26.20;43.90;;;;;;4952321;28;20447;-46
2022/06/22 07:41:19;;;;;;;2.15;1.00;;;26.10;44.00;;;;;;4953383;28;20023;-49
2022/06/22 07:43:50;;;;;;;2.45;0.90;;;26.10;43.90;;;;;;4948816;28;20035;-49
2022/06/22 07:46:40;;;;;;;3.67;1.30;;;26.10;43.90;;;;;;4953342;28;20043;-47
2022/06/22 07:49:27;;;;;;;1.73;0.80;;;26.10;43.80;;;;;;4954144;28;20050;-48
2022/06/22 07:51:57;;;;;;;2.47;1.08;;;26.10;43.90;;;;;;4952302;28;20030;-48
2022/06/22 07:54:26;;;;;;;2.35;1.00;;;26.10;43.90;;;;;;4953601;28;20027;-47
2022/06/22 07:56:58;;;;;;;2.38;1.10;;;26.10;43.90;;;;;;4954064;28;20057;-47
2022/06/22 07:59:33;;;;;;;1.77;0.85;;;26.10;43.90;;;;;;4952533;28;20441;-47
2022/06/22 08:02:03;;;;;;;1.52;0.75;;;26.10;43.90;;;;;;4950477;28;20038;-47
2022/06/22 08:04:34;;;;;;;2.13;0.85;;;26.10;44.00;;;;;;4952404;28;20027;-50
2022/06/22 08:07:07;;;;;;;2.95;1.05;;;26.10;44.00;;;;;;4953476;28;20038;-48
2022/06/22 08:09:35;;;;;;;2.75;1.00;;;26.10;44.10;;;;;;4948079;28;20031;-47
2022/06/22 08:12:20;;;;;;;2.15;0.85;;;26.10;44.20;;;;;;4950248;28;20081;-47
2022/06/22 08:14:49;;;;;;;2.83;1.13;;;26.10;44.20;;;;;;4953452;28;20031;-48
2022/06/22 08:17:42;;;;;;;2.47;0.90;;;26.10;44.10;;;;;;4954235;28;20610;-48
2022/06/22 08:20:16;;;;;;;2.00;0.82;;;26.10;44.10;;;;;;4950660;28;20062;-48
2022/06/22 08:22:44;;;;;;;2.53;0.88;;;26.10;44.10;;;;;;4954189;28;20031;-48
2022/06/22 08:25:11;;;;;;;3.25;1.27;;;26.10;44.10;;;;;;4951552;28;20878;-47
2022/06/22 08:27:37;;;;;;;2.15;1.00;;;26.10;44.00;;;;;;4949432;28;20041;-48
2022/06/22 08:30:04;;;;;;;1.98;1.00;;;26.10;44.00;;;;;;4951756;28;20019;-48
2022/06/22 08:32:55;;;;;;;2.75;1.20;;;26.10;43.90;;;;;;4952594;28;20399;-47
2022/06/22 08:35:46;;;;;;;2.97;1.17;;;26.10;43.90;;;;;;4951608;28;20078;-48
2022/06/22 08:38:25;;;;;;;2.10;0.80;;;26.10;43.90;;;;;;4952997;28;20555;-47
2022/06/22 08:41:19;;;;;;;1.38;0.77;;;26.10;43.90;;;;;;4956490;28;20058;-48
2022/06/22 08:44:17;;;;;;;2.03;1.00;;;26.10;44.00;;;;;;4963073;28;20065;-48
2022/06/22 08:46:57;;;;;;;2.25;0.95;;;26.10;44.00;;;;;;4962785;28;20069;-48
2022/06/22 08:49:38;;;;;;;1.63;0.68;;;26.10;44.40;;;;;;4962659;28;20041;-48
2022/06/22 08:52:22;;;;;;;1.65;0.88;;;26.10;44.40;;;;;;4946018;28;20015;-47
2022/06/22 08:55:02;;;;;;;4.15;1.08;;;26.10;44.40;;;;;;4952980;28;20636;-47
2022/06/22 08:57:33;;;;;;;2.90;1.10;;;26.10;44.40;;;;;;4952965;28;20109;-47
2022/06/22 09:00:08;;;;;;;2.75;0.90;;;26.10;44.70;;;;;;4947302;28;20019;-47
2022/06/22 09:02:55;;;;;;;2.00;0.77;;;26.10;44.60;;;;;;4945140;28;20027;-48
2022/06/22 09:05:46;;;;;;;2.42;1.02;;;26.10;44.40;;;;;;4947440;28;20098;-47
2022/06/22 09:08:27;;;;;;;2.47;1.00;;;26.10;44.40;;;;;;4946669;29;20638;-48
2022/06/22 09:11:22;;;;;;;2.85;0.90;;;26.10;44.30;;;;;;4947674;29;20061;-48
2022/06/22 09:14:07;;;;;;;2.53;1.00;;;26.10;44.50;;;;;;4945519;28;20030;-47
2022/06/22 09:16:36;;;;;;;2.78;0.88;;;26.20;44.50;;;;;;4944019;28;20525;-47
2022/06/22 09:19:21;;;;;;;2.08;1.00;;;26.20;44.50;;;;;;4944035;28;20047;-48
2022/06/22 09:22:01;;;;;;;1.95;0.70;;;26.20;44.40;;;;;;4944326;28;20515;-49
2022/06/22 09:24:33;;;;;;;1.88;0.70;;;26.10;44.50;;;;;;4946331;29;20604;-48
2022/06/22 09:27:12;;;;;;;2.20;1.00;;;26.20;44.70;;;;;;4945626;28;20031;-47
2022/06/22 09:29:43;;;;;;;2.10;0.95;;;26.20;44.60;;;;;;4945606;28;20033;-48
2022/06/22 09:32:10;;;;;;;1.95;0.90;;;26.20;44.60;;;;;;4945198;29;20133;-48
2022/06/22 09:34:35;;;;;;;1.23;0.70;;;26.20;44.60;;;;;;4945854;28;20032;-48
2022/06/22 09:37:23;;;;;;;3.35;1.00;;;26.20;44.70;;;;;;4947207;28;20043;-47
2022/06/22 09:39:54;;;;;;;2.22;0.90;;;26.20;44.90;;;;;;4945416;29;20027;-48
2022/06/22 09:42:49;;;;;;;3.03;1.25;;;26.20;45.00;;;;;;4946748;29;20103;-48
2022/06/22 09:45:26;;;;;;;2.45;1.00;;;26.20;44.80;;;;;;4946540;29;20031;-49
2022/06/22 09:48:11;;;;;;;2.15;1.00;;;26.30;44.90;;;;;;4946273;29;20035;-48
2022/06/22 09:50:52;;;;;;;2.08;1.10;;;26.30;45.10;;;;;;4958405;28;20472;-48
2022/06/22 09:53:20;;;;;;;2.72;1.17;;;26.30;45.30;;;;;;4944970;28;20524;-48
2022/06/22 09:59:19;;;;;;;6.55;2.58;;;26.30;47.20;;;;;;4946839;28;20719;-49
2022/06/22 10:02:01;;;;;;;7.47;3.33;;;26.30;47.50;;;;;;4947353;28;20110;-49
2022/06/22 10:04:48;;;;;;;7.65;3.42;;;26.30;47.60;;;;;;4946675;29;20595;-48
2022/06/22 10:07:19;;;;;;;11.02;5.78;;;26.40;48.00;;;;;;4928176;29;20040;-48
2022/06/22 10:10:26;;;;;;;13.45;6.40;;;26.30;48.70;;;;;;4928009;29;20031;-48
2022/06/22 10:13:29;;;;;;;9.57;3.97;;;26.40;48.00;;;;;;4904724;29;20652;-48
2022/06/22 10:16:12;;;;;;;6.45;2.58;;;26.40;46.90;;;;;;4927888;29;20169;-48
2022/06/22 10:18:59;;;;;;;6.35;2.05;;;26.40;46.40;;;;;;4928285;29;20031;-48
2022/06/22 10:21:57;;;;;;;4.60;2.00;;;26.40;46.10;;;;;;4940730;28;20098;-48
2022/06/22 10:24:42;;;;;;;5.97;2.22;;;26.40;45.90;;;;;;4946824;29;20038;-48
2022/06/22 10:27:25;;;;;;;3.25;1.20;;;26.40;45.70;;;;;;4946469;29;20101;-50
2022/06/22 10:30:15;;;;;;;3.95;1.17;;;26.40;45.50;;;;;;4945996;28;20035;-48
2022/06/22 10:32:50;;;;;;;3.80;1.23;;;26.40;45.40;;;;;;4942094;28;20032;-48
2022/06/22 10:35:57;;;;;;;3.47;1.77;;;26.40;45.50;;;;;;4946327;28;20504;-48
2022/06/22 10:38:56;;;;;;;4.00;1.30;;;26.40;45.40;;;;;;4921488;29;21086;-48
2022/06/22 10:47:26;;;;;;;4.53;1.30;;;26.50;45.20;;;;;;4946100;29;20045;-48
2022/06/22 10:50:07;;;;;;;3.20;1.45;;;26.40;45.20;;;;;;4945316;28;20054;-47
2022/06/22 10:52:55;;;;;;;3.50;1.25;;;26.40;45.20;;;;;;4944085;28;20098;-49
2022/06/22 10:55:51;;;;;;;4.65;1.55;;;26.50;45.20;;;;;;4953985;28;20593;-48
2022/06/22 10:58:25;;;;;;;3.80;1.40;;;26.40;45.20;;;;;;4954504;28;20110;-48
2022/06/22 11:00:56;;;;;;;3.65;1.40;;;26.50;45.20;;;;;;4953561;28;20023;-49
2022/06/22 11:03:51;;;;;;;3.78;1.35;;;26.50;45.10;;;;;;4954175;28;20027;-48
2022/06/22 11:06:49;;;;;;;3.10;1.25;;;26.50;44.90;;;;;;4953950;28;20077;-49
2022/06/22 11:09:20;;;;;;;3.28;1.05;;;26.50;45.00;;;;;;4954351;28;20027;-48
2022/06/22 11:12:13;;;;;;;3.00;1.08;;;26.50;45.00;;;;;;4953499;28;20038;-49
2022/06/22 11:15:01;;;;;;;3.25;1.17;;;26.50;44.90;;;;;;4953401;28;20070;-49
2022/06/22 11:17:52;;;;;;;2.20;1.00;;;26.50;44.70;;;;;;4954244;28;20235;-49
2022/06/22 11:21:11;;;;;;;2.65;1.33;;;26.50;44.70;;;;;;4954558;28;20026;-49
2022/06/22 11:24:01;;;;;;;3.05;1.10;;;26.60;44.70;;;;;;4931818;28;20089;-49
2022/06/22 11:33:20;;;;;;;2.80;1.17;;;26.60;44.60;;;;;;4955225;28;20077;-48
2022/06/22 11:35:52;;;;;;;2.53;1.15;;;26.50;44.50;;;;;;4952713;28;20483;-48
2022/06/22 11:38:36;;;;;;;3.10;1.17;;;26.60;44.40;;;;;;4956229;28;20023;-49
2022/06/22 11:41:10;;;;;;;2.75;1.00;;;26.60;44.40;;;;;;4951584;28;20027;-49
2022/06/22 11:44:03;;;;;;;2.63;1.20;;;26.60;44.50;;;;;;4953900;28;20535;-48
2022/06/22 11:46:35;;;;;;;;;;;26.60;44.50;;;;;;4946090;28;20110;-47
2022/06/22 11:49:25;;;;;;;2.57;1.20;;;26.60;44.40;;;;;;4945304;28;20011;-48
2022/06/22 11:52:12;;;;;;;2.80;1.10;;;26.60;44.40;;;;;;4943122;28;20023;-47
2022/06/22 11:54:56;;;;;;;1.90;0.90;;;26.60;44.30;;;;;;4945391;29;20097;-49
2022/06/22 11:57:50;;;;;;;3.55;1.38;;;26.60;44.00;;;;;;4944947;29;20097;-48
2022/06/22 12:00:32;;;;;;;1.88;0.80;;;26.60;43.20;;;;;;4945045;28;20032;-48
2022/06/22 12:03:04;;;;;;;2.80;1.00;;;26.70;43.60;;;;;;4944895;28;20034;-48
2022/06/22 12:05:42;;;;;;;2.72;1.40;;;26.60;43.00;;;;;;4944612;28;20707;-48
2022/06/22 12:08:44;;;;;;;2.17;1.08;;;26.70;43.40;;;;;;4945412;29;20968;-48
2022/06/22 12:11:45;;;;;;;2.15;0.98;;;26.70;43.90;;;;;;4928739;28;20055;-48
2022/06/22 12:17:42;;;;;;;3.63;1.50;;;26.80;43.40;;;;;;4944732;29;20030;-48
2022/06/22 12:20:25;;;;;;;3.60;1.37;;;26.80;43.30;;;;;;4944982;29;20030;-52
2022/06/22 12:23:12;;;;;;;3.25;1.42;;;26.80;43.40;;;;;;4944443;28;20833;-47
2022/06/22 12:25:50;;;;;;;2.90;1.30;;;26.80;42.90;;;;;;4944316;29;20031;-52
2022/06/22 12:28:35;;;;;;;2.83;1.13;;;26.80;43.70;;;;;;4944628;28;20031;-48
2022/06/22 12:31:19;;;;;;;2.15;1.02;;;26.80;43.30;;;;;;4944826;28;20024;-47
2022/06/22 12:34:02;;;;;;;2.15;1.00;;;26.80;43.20;;;;;;4944385;28;20031;-49
2022/06/22 12:36:48;;;;;;;2.25;1.05;;;26.90;43.60;;;;;;4945753;28;20027;-48
2022/06/22 12:39:16;;;;;;;3.47;1.27;;;26.90;43.20;;;;;;4948607;28;20027;-47
2022/06/22 12:42:07;;;;;;;2.03;0.95;;;26.90;43.20;;;;;;4948082;29;20035;-47
2022/06/22 12:44:42;;;;;;;2.55;0.95;;;26.90;43.30;;;;;;4948430;28;20063;-47
2022/06/22 12:47:44;;;;;;;2.60;1.30;;;26.90;43.60;;;;;;4947355;29;20054;-48
2022/06/22 12:50:16;;;;;;;3.05;1.25;;;26.90;42.80;;;;;;4948234;28;20090;-48
2022/06/22 12:52:47;;;;;;;2.77;1.27;;;27.00;43.60;;;;;;4947904;29;20302;-48
2022/06/22 12:55:17;;;;;;;3.25;1.38;;;26.90;42.00;;;;;;4947860;28;20031;-49
2022/06/22 12:57:59;;;;;;;2.60;1.17;;;27.00;41.20;;;;;;4948419;28;20034;-48
2022/06/22 13:00:25;;;;;;;2.30;1.10;;;26.90;41.90;;;;;;4948047;28;20031;-48
2022/06/22 13:02:57;;;;;;;3.08;1.25;;;27.00;43.00;;;;;;4947455;28;20259;-48
2022/06/22 13:05:32;;;;;;;2.63;1.00;;;27.00;42.80;;;;;;4946922;28;20035;-48
2022/06/22 13:08:14;;;;;;;2.35;1.15;;;27.00;42.80;;;;;;4947627;28;20032;-48
2022/06/22 13:10:51;;;;;;;2.85;1.27;;;27.00;43.10;;;;;;4947365;28;20058;-48
2022/06/22 13:13:39;;;;;;;1.80;1.08;;;27.00;43.30;;;;;;4947448;28;20106;-48
2022/06/22 13:16:28;;;;;;;3.15;1.35;;;27.00;43.50;;;;;;4948224;29;20648;-49
2022/06/22 13:19:15;;;;;;;2.42;1.00;;;26.90;42.90;;;;;;4947076;28;20035;-48
2022/06/22 13:21:43;;;;;;;2.97;1.30;;;27.00;43.40;;;;;;4935038;28;20464;-48
2022/06/22 13:24:44;;;;;;;3.25;1.30;;;27.00;43.70;;;;;;4927360;29;20135;-47
2022/06/22 13:27:16;;;;;;;2.85;0.98;;;27.00;43.70;;;;;;4927985;29;20024;-47
2022/06/22 13:30:01;;;;;;;3.03;1.25;;;27.00;43.70;;;;;;4928148;29;20032;-48
2022/06/22 13:32:31;;;;;;;3.10;1.20;;;27.00;43.80;;;;;;4928100;29;20079;-48
2022/06/22 13:35:04;;;;;;;1.90;0.90;;;27.00;43.70;;;;;;4928365;29;20307;-48
2022/06/22 13:37:38;;;;;;;2.40;1.20;;;27.10;43.50;;;;;;4927177;29;20091;-48
2022/06/22 13:40:26;;;;;;;2.22;1.10;;;27.00;43.70;;;;;;4927815;29;20036;-49
2022/06/22 13:43:07;;;;;;;3.00;1.70;;;27.10;43.40;;;;;;4927826;29;20066;-46
2022/06/22 13:46:11;;;;;;;2.55;1.35;;;27.10;42.70;;;;;;4927101;29;20047;-48
2022/06/22 13:49:04;;;;;;;2.45;1.27;;;27.10;42.30;;;;;;4930363;28;20486;-47
2022/06/22 13:51:51;;;;;;;2.70;1.30;;;27.10;42.30;;;;;;4938350;28;20115;-48
2022/06/22 13:54:36;;;;;;;2.85;1.35;;;27.00;42.30;;;;;;4946167;28;20103;-47
2022/06/22 13:57:39;;;;;;;2.38;1.50;;;27.00;42.20;;;;;;4945299;28;20020;-48
2022/06/22 14:00:15;;;;;;;2.95;1.30;;;27.00;42.30;;;;;;4946742;28;20027;-48
2022/06/22 14:02:49;;;;;;;3.58;1.50;;;27.00;42.30;;;;;;4946061;28;20023;-48
2022/06/22 14:05:50;;;;;;;3.15;1.42;;;27.10;42.20;;;;;;4945702;28;20035;-48
2022/06/22 14:08:22;;;;;;;6.05;1.35;;;27.00;42.20;;;;;;4945662;28;20106;-48
2022/06/22 14:10:57;;;;;;;5.27;2.00;;;27.00;42.30;;;;;;4945547;29;20035;-48
2022/06/22 14:13:39;;;;;;;3.05;1.48;;;27.00;42.00;;;;;;4946574;29;20035;-48
2022/06/22 14:16:23;;;;;;;4.78;1.60;;;27.00;42.00;;;;;;4946815;28;20111;-48
2022/06/22 14:19:21;;;;;;;2.97;1.30;;;27.00;41.80;;;;;;4945408;28;20028;-48